Portada
METAR-TAF:

METAR-TAF

Aeroports :

Tiruchirappal·li, Índia

latitud: 10-46N, longitud: 078-43E, altitud: 85 m

Observació

L'informe es va fer fa 29 minuts, a les 12:00 UTC
Vent 10 kt del Nord-Est amb ràfegues de 20 kt
Temperatura 30°C
Humitat 52%
Pressió 1010 hPa
Visibilitat: 4000 m
Núvols disperses a una alçada de 1600 ft
calitja

METAR: VOTR 151200Z 05010G20KT 4000 HZ SCT016 30/19 Q1010 NOSIG

Hora: 17:59 (12:29 UTC)

Pronòstic

L'informe es va fer fa 1 hora i 29 minuts, a les 11:00 UTC
Pronòstic vàlid del 15 a les 12 UTC al 16 a les 18 UTC
Vent 10 kt del Nord-Est
Visibilitat: 4000 m
Escasses núvols a una alçada de 1800 ft
Núvols disperses a una alçada de 10000 ft
calitja
Temporalment
l' 16 a les 00 UTC al 16 a les 03 UTC
Visibilitat: 2000 m
boirina
Evolucionant progressivament
l' 16 a les 06 UTC al 16 a les 07 UTC
Visibilitat: 5000 m
calitja

TAF: VOTR 151100Z 1512/1618 05010KT 4000 HZ FEW018 SCT100 TEMPO 1600/1603 2000 BR BECMG 1606/1607 5000 HZ

Observacions i pronòstics meteorològics de més de 4000 aeroports (METAR i TAF).

Les estacions disponibles són els punts grocs i vermells al mapa.

Posi el ratolí al punt desitjat per veure el nom de l'estació.

Feu clic per veure les observacions i els pronòstics meteorològics.

Per canviar el mapa: feu clic els botons verds amb una creu de color negre per apropar; al botó verd amb un guió per allunyar la imatge; o en les fletxes verdes per a mapes adjacents.


METAR-TAF: